Tom Price, Western Australia

12:39 PM AWST on February 07, 2016 (GMT +0800)
Tom Price Weather Centre | | Change Station
CLOSE
Current Station
Personal Weather Station
Location: Tom Price, WA
Elevation: 2378 ft
Nearby Weather Stations

Elev 2378 ft 22.69 °S, 117.79 °E | Updated 7 seconds ago

Clear
Clear
97.3 °F
Feels Like 92 °F
N
1.2
Wind Variable Wind from SW
Gusts 1.2 mph

Today
High -- | Low -- °F
--% Chance of Precip.
Yesterday
High -- | Low -- °F
Precip. -- in
Pressure 29.89 in
Visibility 6.2 miles
Clouds
Heat Index 92 °F
Dew Point 36 °F
Humidity 12%
Rainfall 0.00 in
Snow Depth Not available.
5:52 AM 6:53 PM
Waning Crescent, 3% visible
METAR YPBO 070400Z AUTO 11010KT 040V140 9999 // NCD 37/02 Q1012
Pressure 29.89 in
Visibility 6.2 miles
Clouds
Heat Index 92 °F
Dew Point 36 °F
Humidity 12%
Rainfall 0.00 in
Snow Depth Not available.
5:52 AM 6:53 PM
Waning Crescent, 3% visible
METAR YPBO 070400Z AUTO 11010KT 040V140 9999 // NCD 37/02 Q1012

10-Day Weather Forecast

No radar image for this location.
×

Almanac

Astronomy

Feb. 07, 2016 Rise Set
Actual Time
Civil Twilight
Nautical Twilight
Astronomical Twilight
Moon
Length of Visible Light
Length of Day
Tomorrow will be .
, % of the Moon is Illuminated

Today's Extremes

Country Highs Country Lows

Community

WunderPhotos

Upload Photos

1,891,157 photos uploaded!

WunderBlog® & News

Nearby

Air Quality

  Air Quality AQ Index Pollutant
Not available.

Snow Depth

Station Depth Elevation

Earthquake Activity

City Distance Mag. Time & Date
Minimum magnitude displayed is 2.5.

Coastal Water Temperatures

Place Temperature

Stations

Nearby Weather Stations

Station Location Temp. Windchill Dew Point Humidity Wind Precip. Elev Updated Type